Time;durP1;ratioP1;P1;durP2;ratioP2;P2;SDS_P1;SDS_P2;PMS_P1;PMS_P2;Temp;Humidity;BMP_temperature;BMP_pressure;BME280_temperature;BME280_humidity;BME280_pressure;Samples;Min_cycle;Max_cycle;Signal;HPM_P1;HPM_P2
2022/05/23 00:01:03;;;;;;;5.88;2.42;;;;;;;14.70;100.00;95896.72;5052348;28;20072;-72
2022/05/23 00:03:31;;;;;;;6.60;2.80;;;;;;;14.62;100.00;95889.28;5049774;28;20040;-75
2022/05/23 00:05:57;;;;;;;5.85;2.47;;;;;;;14.57;100.00;95894.75;5050857;28;20040;-72
2022/05/23 00:08:25;;;;;;;11.55;2.55;;;;;;;14.53;100.00;95890.22;5048482;28;20043;-73
2022/05/23 00:10:51;;;;;;;5.50;2.60;;;;;;;14.46;100.00;95880.59;5055535;28;20045;-71
2022/05/23 00:13:17;;;;;;;6.43;2.33;;;;;;;14.52;100.00;95883.22;5052403;28;20525;-71
2022/05/23 00:15:42;;;;;;;6.97;2.50;;;;;;;14.49;100.00;95884.63;5049754;28;20041;-73
2022/05/23 00:18:08;;;;;;;6.28;2.45;;;;;;;14.45;100.00;95880.84;5050638;28;20041;-73
2022/05/23 00:20:33;;;;;;;4.80;2.22;;;;;;;14.57;100.00;95885.88;5048098;28;20215;-72
2022/05/23 00:22:59;;;;;;;6.25;2.40;;;;;;;14.58;100.00;95882.09;5051327;28;20075;-72
2022/05/23 00:25:26;;;;;;;9.35;2.50;;;;;;;14.42;100.00;95884.13;5050674;28;20598;-73
2022/05/23 00:27:52;;;;;;;6.32;2.28;;;;;;;14.25;100.00;95889.16;5052772;28;20048;-72
2022/05/23 00:30:24;;;;;;;6.88;2.50;;;;;;;14.13;100.00;95879.56;5049246;28;20063;-72
2022/05/23 00:35:35;;;;;;;7.13;2.80;;;;;;;14.12;100.00;95863.72;5048836;28;20575;-72
2022/05/23 00:38:01;;;;;;;5.43;2.28;;;;;;;14.14;100.00;95854.28;5034074;28;20033;-73
2022/05/23 00:40:26;;;;;;;5.60;2.40;;;;;;;14.15;100.00;95855.88;5050665;28;20044;-75
2022/05/23 00:43:15;;;;;;;7.88;2.42;;;;;;;14.11;100.00;95852.16;5041642;28;20040;-73
2022/05/23 00:45:49;;;;;;;5.75;2.35;;;;;;;14.03;100.00;95855.47;5050413;28;20068;-72
2022/05/23 00:48:16;;;;;;;6.90;2.72;;;;;;;14.14;100.00;95846.19;5050134;28;20114;-73
2022/05/23 00:50:47;;;;;;;5.45;2.40;;;;;;;14.09;100.00;95837.41;5050608;28;20063;-72
2022/05/23 00:53:13;;;;;;;5.43;2.70;;;;;;;14.12;100.00;95818.00;5056599;28;20353;-73
2022/05/23 00:55:44;;;;;;;6.80;2.40;;;;;;;13.97;100.00;95812.78;5049449;28;20401;-73
2022/05/23 00:58:17;;;;;;;8.15;3.20;;;;;;;13.88;100.00;95807.22;5049931;28;20128;-72
2022/05/23 01:00:42;;;;;;;6.78;2.40;;;;;;;13.84;100.00;95806.16;5048049;28;20501;-72
2022/05/23 01:03:13;;;;;;;8.02;2.83;;;;;;;13.82;100.00;95811.84;5048275;28;20032;-75
2022/05/23 01:05:39;;;;;;;4.90;2.50;;;;;;;13.72;100.00;95811.16;5049250;28;20212;-71
2022/05/23 01:08:05;;;;;;;6.55;2.50;;;;;;;13.75;100.00;95816.75;5051362;28;20044;-72
2022/05/23 01:10:39;;;;;;;6.45;2.55;;;;;;;13.70;100.00;95813.31;5049057;28;20041;-73
2022/05/23 01:13:06;;;;;;;6.10;2.60;;;;;;;13.69;100.00;95814.38;5053919;28;20059;-74
2022/05/23 01:15:32;;;;;;;8.82;2.70;;;;;;;13.71;100.00;95799.59;5050913;28;20488;-72
2022/05/23 01:17:59;;;;;;;6.03;2.70;;;;;;;13.74;100.00;95800.91;5047131;28;20138;-75
2022/05/23 01:20:25;;;;;;;6.97;2.63;;;;;;;13.70;100.00;95807.94;5049641;28;20470;-74
2022/05/23 01:23:07;;;;;;;5.00;2.70;;;;;;;13.63;100.00;95811.75;5050639;28;20043;-71
2022/05/23 01:25:52;;;;;;;5.28;2.30;;;;;;;13.64;100.00;95813.38;5045552;28;20124;-73
2022/05/23 01:28:38;;;;;;;5.50;2.58;;;;;;;13.73;100.00;95804.69;5050116;28;20044;-71
2022/05/23 01:31:06;;;;;;;6.07;2.38;;;;;;;13.74;100.00;95804.38;5056642;28;20044;-72
2022/05/23 01:33:32;;;;;;;8.40;2.45;;;;;;;13.84;100.00;95798.91;5051336;28;20029;-75
2022/05/23 01:35:59;;;;;;;7.85;2.80;;;;;;;13.86;100.00;95801.34;5048332;28;20414;-75
2022/05/23 01:38:27;;;;;;;7.55;2.40;;;;;;;13.88;100.00;95809.91;5056663;28;20041;-76
2022/05/23 01:41:15;;;;;;;4.90;2.10;;;;;;;13.85;100.00;95799.69;5047617;28;20453;-71
2022/05/23 01:43:48;;;;;;;9.10;2.30;;;;;;;13.98;100.00;95795.53;5045773;28;20033;-74
2022/05/23 01:46:23;;;;;;;5.07;2.28;;;;;;;13.93;100.00;95791.84;5038313;28;20443;-72
2022/05/23 01:49:09;;;;;;;6.20;2.15;;;;;;;13.96;100.00;95790.47;5034707;28;20052;-74
2022/05/23 01:51:34;;;;;;;5.35;2.30;;;;;;;13.88;100.00;95789.19;5063989;28;20039;-72
2022/05/23 01:54:00;;;;;;;6.05;2.50;;;;;;;13.87;100.00;95786.78;5047962;28;20230;-74
2022/05/23 01:56:27;;;;;;;7.25;2.50;;;;;;;13.94;100.00;95765.75;5066547;28;20496;-72
2022/05/23 02:01:38;;;;;;;5.53;2.38;;;;;;;13.92;100.00;95770.59;5049005;28;20072;-73
2022/05/23 02:04:04;;;;;;;3.75;2.10;;;;;;;13.87;100.00;95771.47;5045380;28;20325;-72
2022/05/23 02:06:40;;;;;;;5.25;2.30;;;;;;;13.85;100.00;95756.69;5049678;28;20080;-72
2022/05/23 02:09:16;;;;;;;5.45;2.10;;;;;;;13.80;100.00;95764.81;5047530;28;20044;-75
2022/05/23 02:11:58;;;;;;;6.38;2.30;;;;;;;13.72;100.00;95760.06;5047900;28;20048;-73
2022/05/23 02:14:27;;;;;;;6.90;2.25;;;;;;;13.73;100.00;95767.03;5050191;28;20055;-73
2022/05/23 02:16:56;;;;;;;3.80;2.08;;;;;;;13.63;100.00;95757.19;5049727;28;20633;-75
2022/05/23 02:19:26;;;;;;;5.68;2.28;;;;;;;13.73;100.00;95761.66;5038066;28;20135;-72
2022/05/23 02:22:03;;;;;;;7.70;2.40;;;;;;;13.82;100.00;95755.38;5048114;28;20220;-71
2022/05/23 02:24:29;;;;;;;4.82;2.20;;;;;;;13.84;100.00;95755.88;5044976;28;20583;-72
2022/05/23 02:26:59;;;;;;;5.30;2.00;;;;;;;13.71;100.00;95748.50;5048256;28;20176;-72
2022/05/23 02:29:33;;;;;;;5.88;2.20;;;;;;;13.66;100.00;95749.34;5046417;28;20036;-73
2022/05/23 02:31:59;;;;;;;6.22;2.30;;;;;;;13.62;100.00;95747.53;5037895;28;20104;-72
2022/05/23 02:34:25;;;;;;;7.97;2.10;;;;;;;13.62;100.00;95759.09;5049868;28;20071;-74
2022/05/23 02:36:53;;;;;;;6.30;2.28;;;;;;;13.65;100.00;95757.72;5048234;28;20085;-72
2022/05/23 02:39:30;;;;;;;6.95;2.70;;;;;;;13.62;100.00;95759.09;5049042;28;20063;-74
2022/05/23 02:41:57;;;;;;;9.88;2.88;;;;;;;13.70;100.00;95764.94;5051842;28;20102;-72
2022/05/23 02:44:25;;;;;;;7.38;2.78;;;;;;;13.72;100.00;95765.44;5053571;28;20464;-75
2022/05/23 02:46:51;;;;;;;5.55;2.53;;;;;;;13.76;100.00;95764.56;5059227;28;20043;-76
2022/05/23 02:49:19;;;;;;;7.88;2.92;;;;;;;13.82;100.00;95768.00;5049502;28;20404;-72
2022/05/23 02:51:47;;;;;;;6.22;2.70;;;;;;;13.87;100.00;95765.28;5014724;28;20032;-73
2022/05/23 02:54:14;;;;;;;4.70;2.33;;;;;;;13.97;100.00;95759.78;5045492;28;20332;-73
2022/05/23 02:56:46;;;;;;;5.32;2.30;;;;;;;14.03;100.00;95752.47;5048047;28;20033;-73
2022/05/23 02:59:16;;;;;;;5.93;2.75;;;;;;;14.03;100.00;95739.00;5047332;28;20040;-72
2022/05/23 03:04:36;;;;;;;7.47;2.45;;;;;;;14.10;100.00;95724.13;5046074;28;20037;-73
2022/05/23 03:07:02;;;;;;;6.10;2.35;;;;;;;14.15;100.00;95721.34;5049635;28;20103;-76
2022/05/23 03:09:30;;;;;;;5.88;2.13;;;;;;;14.16;100.00;95712.22;5055300;28;20048;-74
2022/05/23 03:11:55;;;;;;;9.25;2.55;;;;;;;14.15;100.00;95704.41;5045266;28;20515;-72
2022/05/23 03:14:28;;;;;;;4.97;2.20;;;;;;;14.15;100.00;95702.50;5045964;28;20587;-72
2022/05/23 03:17:01;;;;;;;7.35;2.47;;;;;;;14.11;100.00;95690.75;5051433;28;20069;-74
2022/05/23 03:19:28;;;;;;;4.43;2.22;;;;;;;14.00;100.00;95688.47;5047431;28;20486;-74
2022/05/23 03:27:26;;;;;;;5.82;2.55;;;;;;;13.91;100.00;95682.94;5047941;28;20146;-71
2022/05/23 03:29:57;;;;;;;7.30;2.70;;;;;;;13.98;100.00;95679.88;5048822;28;20048;-72
2022/05/23 03:32:30;;;;;;;5.30;2.25;;;;;;;14.01;100.00;95682.81;5049474;28;20044;-72
2022/05/23 03:34:57;;;;;;;4.90;2.30;;;;;;;13.97;100.00;95683.66;5050628;28;20079;-72
2022/05/23 03:37:26;;;;;;;5.40;2.10;;;;;;;13.93;100.00;95673.50;5047154;28;20472;-75
2022/05/23 03:39:54;;;;;;;8.85;2.38;;;;;;;13.93;100.00;95691.53;5048755;28;20550;-72
2022/05/23 03:42:19;;;;;;;5.53;2.42;;;;;;;13.97;100.00;95683.66;5046627;28;20142;-72
2022/05/23 03:44:47;;;;;;;8.80;2.53;;;;;;;13.92;100.00;95682.63;5048264;28;20040;-72
2022/05/23 03:47:15;;;;;;;9.27;2.63;;;;;;;13.94;100.00;95677.00;5049316;28;20400;-73
2022/05/23 03:49:41;;;;;;;7.22;2.65;;;;;;;14.04;100.00;95674.16;5048578;28;20041;-72
2022/05/23 03:52:07;;;;;;;5.03;2.25;;;;;;;14.15;100.00;95672.13;5042732;28;20507;-74
2022/05/23 03:54:33;;;;;;;6.85;2.63;;;;;;;14.06;100.00;95663.91;5049931;28;20041;-72
2022/05/23 03:57:01;;;;;;;5.20;2.35;;;;;;;14.06;100.00;95666.59;5044410;28;20069;-71
2022/05/23 03:59:27;;;;;;;7.30;2.40;;;;;;;14.12;100.00;95667.34;5046062;28;20381;-73
2022/05/23 04:01:56;;;;;;;7.38;2.40;;;;;;;14.13;100.00;95671.63;5046622;28;20041;-75
2022/05/23 04:04:31;;;;;;;4.55;2.28;;;;;;;14.07;100.00;95678.16;5053378;28;20315;-74
2022/05/23 04:07:23;;;;;;;8.10;2.60;;;;;;;13.96;100.00;95684.75;5044167;28;20057;-72
2022/05/23 04:09:59;;;;;;;4.43;2.25;;;;;;;13.89;100.00;95688.59;5048434;28;20053;-71
2022/05/23 04:12:28;;;;;;;5.53;2.55;;;;;;;13.93;100.00;95686.16;5047201;28;20073;-72
2022/05/23 04:14:53;;;;;;;8.10;2.65;;;;;;;13.88;100.00;95687.00;5047539;28;20145;-73
2022/05/23 04:17:23;;;;;;;5.97;2.50;;;;;;;13.88;100.00;95683.50;5047823;28;20507;-72
2022/05/23 04:19:49;;;;;;;4.72;2.40;;;;;;;13.86;100.00;95681.13;5062279;28;20032;-73
2022/05/23 04:22:21;;;;;;;5.60;2.88;;;;;;;13.89;100.00;95671.66;5047479;28;20075;-74
2022/05/23 04:24:58;;;;;;;6.20;2.88;;;;;;;14.02;100.00;95667.47;5055221;28;20045;-74
2022/05/23 04:27:24;;;;;;;7.85;2.67;;;;;;;14.06;100.00;95666.59;5048636;28;20392;-75
2022/05/23 04:29:49;;;;;;;6.45;2.60;;;;;;;13.95;100.00;95670.53;5048931;28;20040;-75
2022/05/23 04:35:14;;;;;;;6.43;2.10;;;;;;;13.92;100.00;95661.13;5046872;28;20590;-73
2022/05/23 04:37:42;;;;;;;7.15;2.90;;;;;;;13.89;100.00;95661.72;5037775;28;20553;-73
2022/05/23 04:40:08;;;;;;;5.20;2.58;;;;;;;13.97;100.00;95652.19;5047066;28;20051;-74
2022/05/23 04:42:35;;;;;;;5.32;2.83;;;;;;;14.11;100.00;95647.72;5048519;28;20037;-75
2022/05/23 04:45:00;;;;;;;6.28;2.45;;;;;;;14.21;100.00;95644.06;5051834;28;20044;-72
2022/05/23 04:50:11;;;;;;;7.05;2.40;;;;;;;14.14;100.00;95620.22;5048519;28;20037;-73
2022/05/23 04:52:40;;;;;;;13.73;2.67;;;;;;;14.06;100.00;95614.69;5045650;28;20128;-72
2022/05/23 04:55:08;;;;;;;11.15;2.70;;;;;;;14.17;100.00;95621.53;5059212;28;20128;-74
2022/05/23 04:57:35;;;;;;;6.95;2.83;;;;;;;14.21;100.00;95614.47;5050892;28;20037;-75
2022/05/23 05:00:08;;;;;;;8.20;2.97;;;;;;;14.18;100.00;95623.94;5039652;28;20118;-75
2022/05/23 05:02:48;;;;;;;9.48;3.08;;;;;;;14.20;100.00;95621.75;5056945;28;20055;-72
2022/05/23 05:05:30;;;;;;;6.95;2.95;;;;;;;14.19;100.00;95612.06;5059237;28;20036;-72
2022/05/23 05:07:57;;;;;;;7.47;2.72;;;;;;;14.13;100.00;95607.84;5039438;28;20123;-74
2022/05/23 05:10:24;;;;;;;6.25;2.70;;;;;;;14.21;100.00;95609.09;5047594;28;20388;-73
2022/05/23 05:12:54;;;;;;;7.93;3.00;;;;;;;14.15;100.00;95602.97;5051605;28;20032;-73
2022/05/23 05:15:24;;;;;;;6.93;2.63;;;;;;;14.17;100.00;95605.41;5052683;28;20033;-72
2022/05/23 05:17:51;;;;;;;5.55;3.17;;;;;;;14.17;100.00;95603.50;5058423;28;20032;-77
2022/05/23 05:20:18;;;;;;;5.93;2.97;;;;;;;14.18;100.00;95605.09;5050487;28;20045;-72
2022/05/23 05:22:59;;;;;;;6.38;2.72;;;;;;;14.17;100.00;95597.31;5050913;28;20045;-73
2022/05/23 05:25:41;;;;;;;5.70;3.00;;;;;;;14.23;100.00;95588.06;5047006;28;20068;-74
2022/05/23 05:28:10;;;;;;;5.03;3.00;;;;;;;14.39;100.00;95591.31;5054892;28;20555;-72
2022/05/23 05:30:44;;;;;;;9.35;3.38;;;;;;;14.39;100.00;95580.56;5048640;28;20160;-73
2022/05/23 05:33:16;;;;;;;9.13;3.72;;;;;;;14.52;100.00;95560.22;5057100;28;20041;-74
2022/05/23 05:35:53;;;;;;;5.72;2.70;;;;;;;14.51;100.00;95551.34;5049835;28;20067;-73
2022/05/23 05:38:32;;;;;;;4.95;2.95;;;;;;;14.53;100.00;95549.13;5048953;28;20507;-74
2022/05/23 05:41:06;;;;;;;6.05;2.72;;;;;;;14.75;100.00;95543.91;5054738;28;20044;-76
2022/05/23 05:43:36;;;;;;;5.20;3.00;;;;;;;14.68;100.00;95519.25;5049439;28;20044;-73
2022/05/23 05:46:16;;;;;;;9.13;3.00;;;;;;;14.65;100.00;95514.47;5052408;28;20032;-72
2022/05/23 05:48:55;;;;;;;6.28;2.90;;;;;;;14.78;100.00;95496.72;5055989;28;20499;-72
2022/05/23 05:51:24;;;;;;;8.57;3.15;;;;;;;14.81;100.00;95498.84;5054571;28;20040;-73
2022/05/23 05:54:12;;;;;;;6.75;2.78;;;;;;;15.02;100.00;95491.19;5051076;28;20461;-72
2022/05/23 05:56:45;;;;;;;9.52;2.70;;;;;;;15.12;100.00;95492.88;5056352;28;20043;-73
2022/05/23 05:59:13;;;;;;;4.35;2.80;;;;;;;15.11;100.00;95486.69;5053148;28;20502;-73
2022/05/23 06:01:44;;;;;;;10.23;3.45;;;;;;;15.19;100.00;95488.66;5048352;28;20044;-73
2022/05/23 06:04:10;;;;;;;10.63;3.22;;;;;;;15.32;100.00;95482.44;5048647;28;20575;-72
2022/05/23 06:12:19;;;;;;;8.10;3.35;;;;;;;15.33;100.00;95475.97;5035290;28;20476;-73
2022/05/23 06:14:47;;;;;;;8.45;2.80;;;;;;;15.47;100.00;95469.75;5037120;28;20040;-73
2022/05/23 06:17:12;;;;;;;6.25;3.08;;;;;;;15.40;100.00;95461.28;5048363;28;20241;-73
2022/05/23 06:19:46;;;;;;;11.77;2.97;;;;;;;15.50;100.00;95461.88;5048877;28;20044;-72
2022/05/23 06:22:37;;;;;;;7.93;2.65;;;;;;;15.63;100.00;95460.25;5048045;28;20059;-72
2022/05/23 06:25:08;;;;;;;6.35;3.05;;;;;;;15.60;100.00;95461.63;5046706;28;20508;-73
2022/05/23 06:27:36;;;;;;;7.80;2.80;;;;;;;15.65;100.00;95454.56;5050557;28;20064;-73
2022/05/23 06:30:13;;;;;;;6.75;2.65;;;;;;;15.63;100.00;95454.84;5050197;28;20092;-75
2022/05/23 06:32:44;;;;;;;6.80;3.08;;;;;;;15.50;100.00;95452.97;5052791;28;20044;-75
2022/05/23 06:35:13;;;;;;;8.02;3.45;;;;;;;15.46;100.00;95450.06;5050525;28;20028;-72
2022/05/23 06:37:41;;;;;;;8.93;3.63;;;;;;;15.28;100.00;95453.72;5050002;28;20040;-73
2022/05/23 06:40:22;;;;;;;9.20;3.05;;;;;;;15.24;100.00;95442.72;5045786;28;20151;-73
2022/05/23 06:43:13;;;;;;;7.03;3.00;;;;;;;15.22;100.00;95450.31;5045646;28;20117;-72
2022/05/23 06:45:59;;;;;;;5.82;3.03;;;;;;;15.36;100.00;95455.69;5045722;28;20045;-71
2022/05/23 06:49:00;;;;;;;7.65;3.42;;;;;;;15.40;100.00;95459.38;5045225;28;20481;-74
2022/05/23 06:51:52;;;;;;;7.90;4.07;;;;;;;15.40;100.00;95486.31;5051438;28;20455;-71
2022/05/23 06:54:22;;;;;;;9.13;3.60;;;;;;;15.09;100.00;95499.63;5046103;28;20040;-71
2022/05/23 06:57:07;;;;;;;5.45;3.55;;;;;;;15.03;100.00;95493.56;5061987;28;20423;-72
2022/05/23 06:59:35;;;;;;;7.88;3.70;;;;;;;15.34;100.00;95487.56;5046406;28;20060;-71
2022/05/23 07:02:01;;;;;;;5.13;3.25;;;;;;;15.44;100.00;95479.25;5049267;28;20051;-75
2022/05/23 07:13:11;;;;;;;11.35;4.13;;;;;;;15.73;100.00;95476.22;5047961;28;20601;-72
2022/05/23 07:15:46;;;;;;;7.57;3.83;;;;;;;15.55;100.00;95485.19;5049376;28;20497;-73
2022/05/23 07:18:14;;;;;;;7.45;3.35;;;;;;;15.40;100.00;95480.13;5055150;28;20472;-75
2022/05/23 07:20:43;;;;;;;7.20;3.85;;;;;;;15.29;100.00;95488.44;5046634;28;20033;-73
2022/05/23 07:23:19;;;;;;;8.55;3.17;;;;;;;15.23;100.00;95481.56;5048728;28;20037;-73
2022/05/23 07:25:51;;;;;;;7.03;3.35;;;;;;;14.98;100.00;95485.56;5047516;28;20388;-73
2022/05/23 07:28:37;;;;;;;8.30;3.80;;;;;;;14.80;100.00;95499.16;5046228;28;20495;-73
2022/05/23 07:31:03;;;;;;;8.90;3.92;;;;;;;14.86;100.00;95497.94;5046074;28;20045;-77
2022/05/23 07:33:30;;;;;;;11.35;3.67;;;;;;;14.86;100.00;95490.66;5050559;28;20063;-71
2022/05/23 07:36:00;;;;;;;7.85;3.83;;;;;;;15.15;100.00;95479.56;5051629;28;20067;-76
2022/05/23 07:38:28;;;;;;;8.75;3.78;;;;;;;15.45;100.00;95458.47;5054494;28;20429;-72
2022/05/23 07:40:58;;;;;;;8.98;3.95;;;;;;;15.50;100.00;95456.47;5047402;28;20076;-74
2022/05/23 07:43:28;;;;;;;7.35;3.83;;;;;;;15.57;100.00;95478.44;5047084;28;20049;-72
2022/05/23 07:46:00;;;;;;;8.77;4.00;;;;;;;15.08;100.00;95486.47;5048070;28;20047;-72
2022/05/23 07:48:27;;;;;;;8.10;4.35;;;;;;;14.82;100.00;95496.94;5045462;28;20040;-72
2022/05/23 07:50:55;;;;;;;10.55;4.07;;;;;;;14.75;100.00;95491.94;5047503;28;20403;-74
2022/05/23 08:01:52;;;;;;;7.00;3.40;;;;;;;14.48;100.00;95498.09;5060643;28;20043;-71
2022/05/23 08:04:19;;;;;;;10.20;4.63;;;;;;;14.48;100.00;95498.91;5047983;28;20029;-72
2022/05/23 08:06:49;;;;;;;10.82;5.32;;;;;;;14.58;100.00;95495.22;5054667;28;20045;-75
2022/05/23 08:09:17;;;;;;;9.00;4.20;;;;;;;14.73;100.00;95489.56;5047279;28;20045;-74
2022/05/23 08:11:55;;;;;;;9.20;3.72;;;;;;;14.83;100.00;95496.63;5048563;28;20522;-73
2022/05/23 08:14:22;;;;;;;7.35;4.38;;;;;;;14.98;100.00;95487.47;5040095;28;20061;-72
2022/05/23 08:16:54;;;;;;;5.30;3.10;;;;;;;15.17;100.00;95480.06;5051153;28;20123;-73
2022/05/23 08:19:33;;;;;;;9.55;3.90;;;;;;;15.34;100.00;95482.16;5051158;28;20452;-73
2022/05/23 08:22:20;;;;;;;8.07;4.25;;;;;;;15.73;100.00;95470.03;5057221;28;20135;-76
2022/05/23 08:25:04;;;;;;;6.70;3.55;;;;;;;15.76;100.00;95470.19;5052318;28;20735;-76
2022/05/23 08:27:34;;;;;;;8.25;4.00;;;;;;;15.84;100.00;95471.38;5053782;28;20048;-76
2022/05/23 08:30:01;;;;;;;10.40;4.15;;;;;;;15.91;100.00;95470.94;5053937;28;20353;-72
2022/05/23 08:32:27;;;;;;;7.97;4.20;;;;;;;16.17;100.00;95464.63;5052579;28;20045;-72
2022/05/23 08:35:08;;;;;;;11.95;4.50;;;;;;;16.36;100.00;95453.63;5064552;28;20041;-72
2022/05/23 08:37:35;;;;;;;9.27;3.90;;;;;;;16.51;100.00;95446.25;5051777;28;20045;-75
2022/05/23 08:40:00;;;;;;;8.07;4.30;;;;;;;16.82;100.00;95449.75;5057312;28;20036;-75
2022/05/23 08:42:53;;;;;;;10.20;4.20;;;;;;;16.83;100.00;95445.16;5050495;28;20048;-73
2022/05/23 08:45:40;;;;;;;5.40;3.38;;;;;;;16.92;100.00;95446.78;5049032;28;20098;-75
2022/05/23 08:48:18;;;;;;;8.40;3.67;;;;;;;16.92;100.00;95441.38;5056302;28;20443;-71
2022/05/23 08:50:59;;;;;;;8.07;3.58;;;;;;;17.37;100.00;95440.38;5051354;28;20037;-72
2022/05/23 08:53:37;;;;;;;7.97;4.13;;;;;;;17.89;100.00;95438.50;5053765;28;20029;-72
2022/05/23 08:56:46;;;;;;;11.73;3.97;;;;;;;17.76;100.00;95442.19;5044206;28;20277;-73
2022/05/23 08:59:25;;;;;;;7.80;4.03;;;;;;;17.89;100.00;95441.19;5045902;28;20462;-74
2022/05/23 09:02:10;;;;;;;9.55;3.72;;;;;;;18.06;100.00;95438.50;5055313;28;20048;-73
2022/05/23 09:04:57;;;;;;;6.88;3.90;;;;;;;18.44;100.00;95420.72;5055288;28;20148;-73
2022/05/23 09:07:41;;;;;;;7.38;3.72;;;;;;;18.79;100.00;95421.44;5050926;28;20437;-72
2022/05/23 09:10:23;;;;;;;7.95;3.72;;;;;;;18.75;100.00;95412.34;5048967;28;20159;-73
2022/05/23 09:12:51;;;;;;;5.53;3.22;;;;;;;18.67;100.00;95410.47;5051089;28;20045;-73
2022/05/23 09:15:17;;;;;;;7.38;3.70;;;;;;;18.49;100.00;95410.53;5048252;28;20477;-72
2022/05/23 09:17:45;;;;;;;10.95;4.20;;;;;;;18.32;100.00;95410.56;5052562;28;20049;-78
2022/05/23 09:20:18;;;;;;;8.23;4.05;;;;;;;18.23;100.00;95402.47;5048331;28;20033;-74
2022/05/23 09:22:48;;;;;;;7.68;4.10;;;;;;;18.43;100.00;95400.19;5050140;28;20293;-75
2022/05/23 09:25:21;;;;;;;8.23;4.15;;;;;;;18.21;100.00;95403.91;5048625;28;20573;-73
2022/05/23 09:27:50;;;;;;;10.27;3.95;;;;;;;18.23;100.00;95401.69;5051102;28;20167;-71
2022/05/23 09:30:22;;;;;;;8.32;3.80;;;;;;;18.85;100.00;95395.75;5047870;28;20127;-72
2022/05/23 09:32:55;;;;;;;;;;;;;;;19.55;100.00;95390.69;5065388;28;20036;-73
2022/05/23 09:35:39;;;;;;;10.77;3.58;;;;;;;19.77;100.00;95384.97;5061968;28;19967;-73
2022/05/23 09:38:16;;;;;;;9.05;3.80;;;;;;;18.99;100.00;95382.78;5048040;28;20037;-72
2022/05/23 09:41:05;;;;;;;17.38;3.83;;;;;;;19.42;100.00;95387.09;5048821;28;20045;-73
2022/05/23 09:49:01;;;;;;;9.82;3.85;;;;;;;19.58;100.00;95380.00;5046511;28;20052;-76
2022/05/23 09:51:26;;;;;;;5.72;3.45;;;;;;;20.06;100.00;95384.03;5049091;28;20040;-73
2022/05/23 09:53:53;;;;;;;8.23;4.05;;;;;;;20.34;100.00;95383.44;5047801;28;20076;-73
2022/05/23 09:56:40;;;;;;;8.93;3.40;;;;;;;20.43;100.00;95378.69;5051792;28;20075;-72
2022/05/23 09:59:38;;;;;;;10.68;3.47;;;;;;;19.96;100.00;95373.59;5046519;28;20116;-76
2022/05/23 10:02:15;;;;;;;7.78;3.03;;;;;;;19.52;100.00;95367.72;5062765;28;20135;-73
2022/05/23 10:04:44;;;;;;;11.70;3.28;;;;;;;19.51;100.00;95363.41;5048985;28;20144;-73
2022/05/23 10:07:28;;;;;;;8.88;3.70;;;;;;;19.97;100.00;95354.25;5047942;28;20044;-72
2022/05/23 10:10:20;;;;;;;7.95;3.90;;;;;;;20.27;100.00;95356.81;5049121;28;20037;-73
2022/05/23 10:13:40;;;;;;;8.82;3.92;;;;;;;19.94;100.00;95354.13;5052912;28;20292;-72
2022/05/23 10:16:08;;;;;;;8.38;3.50;;;;;;;20.18;100.00;95340.63;5048087;28;20052;-73
2022/05/23 10:18:43;;;;;;;10.52;4.03;;;;;;;20.45;100.00;95350.09;5048250;28;20029;-75
2022/05/23 10:21:19;;;;;;;11.50;4.40;;;;;;;19.84;100.00;95355.31;5049619;28;20328;-71
2022/05/23 10:23:59;;;;;;;8.30;4.50;;;;;;;19.74;100.00;95356.53;5046223;28;20050;-73
2022/05/23 10:26:27;;;;;;;7.45;3.38;;;;;;;19.71;100.00;95349.06;5049904;28;20048;-72
2022/05/23 10:28:55;;;;;;;13.23;4.72;;;;;;;19.70;100.00;95354.84;4696886;28;10000279;-74
2022/05/23 10:31:58;;;;;;;12.95;5.97;;;;;;;19.87;100.00;95354.69;5047449;28;20500;-72
2022/05/23 10:34:42;;;;;;;8.90;4.60;;;;;;;19.92;100.00;95354.47;5037251;28;20048;-72
2022/05/23 10:37:23;;;;;;;12.25;6.10;;;;;;;20.18;100.00;95342.56;5047425;28;20051;-76
2022/05/23 10:43:03;;;;;;;10.27;4.25;;;;;;;20.18;100.00;95335.19;5047009;28;20469;-73
2022/05/23 10:45:48;;;;;;;13.30;5.60;;;;;;;20.24;100.00;95339.28;5036135;28;20044;-74
2022/05/23 10:48:16;;;;;;;11.25;4.72;;;;;;;20.76;100.00;95321.56;5045286;28;20480;-76
2022/05/23 10:50:56;;;;;;;10.82;4.30;;;;;;;21.08;100.00;95311.66;5043788;28;20040;-72
2022/05/23 10:53:57;;;;;;;11.60;5.87;;;;;;;21.08;100.00;95303.50;5045005;28;20036;-74
2022/05/23 10:56:32;;;;;;;15.15;5.45;;;;;;;21.85;100.00;95289.78;5045329;28;20058;-76
2022/05/23 10:59:02;;;;;;;9.23;4.57;;;;;;;22.09;100.00;95280.69;5042167;28;20392;-75
2022/05/23 11:01:39;;;;;;;14.32;5.32;;;;;;;21.85;100.00;95274.22;5049792;28;20099;-76
2022/05/23 11:04:19;;;;;;;13.30;6.57;;;;;;;22.06;100.00;95263.09;5045385;28;20193;-74
2022/05/23 11:07:07;;;;;;;10.90;5.43;;;;;;;22.22;100.00;95274.03;5046744;28;20048;-73
2022/05/23 11:09:38;;;;;;;11.48;5.85;;;;;;;22.31;100.00;95271.13;5045810;28;20406;-74
2022/05/23 11:12:35;;;;;;;9.82;5.07;;;;;;;22.68;100.00;95275.16;5046242;28;20550;-75
2022/05/23 11:15:29;;;;;;;16.17;5.75;;;;;;;23.07;98.80;95259.69;5044936;28;20542;-72
2022/05/23 11:18:02;;;;;;;15.60;5.07;;;;;;;23.43;100.00;95259.66;5045824;28;20043;-72
2022/05/23 11:20:36;;;;;;;12.50;4.60;;;;;;;23.12;100.00;95255.91;5045804;28;20138;-75
2022/05/23 11:23:06;;;;;;;10.02;5.35;;;;;;;23.73;97.89;95257.91;5047286;28;20076;-72
2022/05/23 11:25:36;;;;;;;9.52;5.65;;;;;;;24.11;96.82;95267.97;5044494;28;20626;-73
2022/05/23 11:33:52;;;;;;;10.95;5.90;;;;;;;23.49;100.00;95264.44;5047271;28;20221;-74
2022/05/23 11:36:24;;;;;;;13.68;5.50;;;;;;;21.99;100.00;95265.63;5045641;28;20060;-72
2022/05/23 11:38:51;;;;;;;10.35;5.18;;;;;;;21.90;100.00;95260.38;5045118;28;20037;-74
2022/05/23 11:41:40;;;;;;;11.35;5.38;;;;;;;22.16;100.00;95250.91;5047360;28;20348;-74
2022/05/23 11:44:35;;;;;;;8.95;5.63;;;;;;;21.98;100.00;95237.63;5046375;28;20044;-73
2022/05/23 11:47:16;;;;;;;12.15;6.38;;;;;;;23.03;100.00;95231.56;5045831;28;20064;-73
2022/05/23 11:49:46;;;;;;;12.07;5.75;;;;;;;24.55;97.46;95232.03;5042966;28;20156;-75
2022/05/23 11:52:26;;;;;;;14.52;6.32;;;;;;;24.08;99.54;95232.41;5047538;28;20036;-72
2022/05/23 11:54:52;;;;;;;10.27;5.60;;;;;;;24.25;97.70;95218.25;5048876;28;20041;-72
2022/05/23 11:57:39;;;;;;;14.48;6.28;;;;;;;23.91;100.00;95230.94;5046025;28;20068;-74
2022/05/23 12:00:27;;;;;;;10.43;5.25;;;;;;;23.66;100.00;95238.69;5052189;28;20094;-72
2022/05/23 12:03:22;;;;;;;13.07;6.10;;;;;;;22.98;100.00;95229.09;5047253;28;20048;-73
2022/05/23 12:06:16;;;;;;;10.93;5.95;;;;;;;22.14;100.00;95228.69;5040068;28;20468;-73
2022/05/23 12:08:59;;;;;;;11.00;5.32;;;;;;;22.47;100.00;95223.66;5046889;28;20128;-74
2022/05/23 12:11:27;;;;;;;10.82;5.53;;;;;;;22.23;100.00;95210.22;5048573;28;20043;-74
2022/05/23 12:13:58;;;;;;;12.00;5.80;;;;;;;22.60;100.00;95209.91;5046386;28;20433;-73
2022/05/23 12:16:38;;;;;;;14.38;5.03;;;;;;;22.87;100.00;95208.97;5046899;28;20028;-74
2022/05/23 12:19:28;;;;;;;14.32;6.13;;;;;;;23.15;100.00;95214.25;5047474;28;20036;-72
2022/05/23 12:22:12;;;;;;;12.02;5.35;;;;;;;23.00;100.00;95207.72;5046685;28;20036;-72
2022/05/23 12:25:10;;;;;;;11.80;5.80;;;;;;;22.88;100.00;95186.03;5047100;28;20036;-74
2022/05/23 12:27:45;;;;;;;11.70;5.85;;;;;;;22.71;100.00;95175.50;5046035;28;20618;-73
2022/05/23 12:30:17;;;;;;;13.73;5.30;;;;;;;22.94;100.00;95170.94;5047011;28;20048;-73
2022/05/23 12:33:07;;;;;;;15.77;5.28;;;;;;;23.04;100.00;95173.13;5046766;28;20422;-73
2022/05/23 12:35:39;;;;;;;14.15;5.80;;;;;;;23.58;100.00;95164.03;5045432;28;20072;-73
2022/05/23 12:38:30;;;;;;;11.73;6.00;;;;;;;22.91;100.00;95165.44;5047848;28;20079;-72
2022/05/23 12:41:15;;;;;;;15.00;6.82;;;;;;;22.69;100.00;95156.00;5045217;28;20076;-72
2022/05/23 12:44:15;;;;;;;11.15;5.30;;;;;;;22.37;100.00;95144.38;5049477;28;20079;-76
2022/05/23 12:47:07;;;;;;;11.70;5.00;;;;;;;21.93;100.00;95158.91;5046209;28;20045;-75
2022/05/23 12:49:56;;;;;;;19.17;6.63;;;;;;;21.94;100.00;95156.97;5043424;28;20938;-73
2022/05/23 12:52:43;;;;;;;10.50;5.75;;;;;;;22.12;100.00;95143.81;5045100;28;20762;-72